Eads, CO (81036)

6:45 AM MDT on July 27, 2016 (GMT -0600)
Kit Carson | | Change Station

Elev 4301 ft 38.77 °N, 102.79 °W | Updated 10 seconds ago

Clear
Clear
64.2 °F
Feels Like 64.2 °F
N
2.8
Wind Variable Wind from WNW
Gusts 3.6 mph

Today
High -- | Low -- °F
--% Chance of Precip.
Yesterday
High -- | Low -- °F
Precip. -- in
Pressure 29.89 in
Visibility 10.0 miles
Clouds Clear
Dew Point 56 °F
Humidity 74%
Rainfall 0.00 in
Snow Depth Not available.
5:48 AM 8:04 PM
Last Quarter, 43% visible
METAR KLAA 271153Z AUTO 00000KT 10SM CLR 21/14 A3006 RMK AO2 SLP121 6//// 7//// T02110139 10233 20178 53002 TSNO $
Pressure 29.89 in
Visibility 10.0 miles
Clouds Clear
Dew Point 56 °F
Humidity 74%
Rainfall 0.00 in
Snow Depth Not available.
5:48 AM 8:04 PM
Last Quarter, 43% visible
METAR KLAA 271153Z AUTO 00000KT 10SM CLR 21/14 A3006 RMK AO2 SLP121 6//// 7//// T02110139 10233 20178 53002 TSNO $

10-Day Weather Forecast

Almanac

Astronomy

Jul. 27, 2016 Rise Set
Actual Time
Civil Twilight
Nautical Twilight
Astronomical Twilight
Moon
Length of Visible Light
Length of Day
Tomorrow will be .
, % of the Moon is Illuminated

Today's Extremes

State Highs State Lows

Community

WunderPhotos

Upload Photos

1,927,841 photos uploaded!

WunderBlog® & News

Nearby

Air Quality

  Air Quality AQ Index Pollutant
Not available.

Snow Depth

Station Depth Elevation

Earthquake Activity

City Distance Mag. Time & Date
Minimum magnitude displayed is 2.5.

Coastal Water Temperatures

Place Temperature

Stations

Nearby Weather Stations

Station Location Temp. Windchill Dew Point Humidity Wind Precip. Elev Updated Type
                   

Watches & Warnings

There are currently no watches in effect.